createdAt,value
2022-11-04T00:02:43.111Z,9.63
2022-11-04T00:05:30.458Z,9.45
2022-11-04T00:08:26.406Z,9.35
2022-11-04T00:11:33.652Z,9.05
2022-11-04T00:14:21.463Z,8.88
2022-11-04T00:17:23.282Z,8.18
2022-11-04T00:20:28.474Z,8.55
2022-11-04T00:23:33.829Z,9.15
2022-11-04T00:26:25.538Z,8.75
2022-11-04T00:29:13.092Z,8.80
2022-11-04T00:32:18.557Z,8.08
2022-11-04T00:35:06.382Z,7.58
2022-11-04T00:37:53.838Z,7.42
2022-11-04T00:40:41.087Z,7.22
2022-11-04T00:43:28.562Z,6.30
2022-11-04T00:46:16.097Z,6.30
2022-11-04T00:49:03.898Z,5.70
2022-11-04T00:51:51.198Z,5.92
2022-11-04T00:54:38.580Z,5.85
2022-11-04T00:57:25.902Z,6.05
2022-11-04T01:00:14.256Z,5.72
2022-11-04T01:03:02.244Z,4.58
2022-11-04T01:05:49.590Z,4.78
2022-11-04T01:08:36.943Z,4.37
2022-11-04T01:11:25.002Z,3.20
2022-11-04T01:14:12.793Z,2.75
2022-11-04T01:17:00.234Z,3.00
2022-11-04T01:19:47.684Z,2.70
2022-11-04T01:22:34.960Z,2.58
2022-11-04T01:25:22.247Z,2.83
2022-11-04T01:28:09.727Z,2.65
2022-11-04T01:30:57.465Z,2.58
2022-11-04T01:33:45.419Z,2.72
2022-11-04T01:36:33.080Z,2.60
2022-11-04T01:39:20.529Z,2.40
2022-11-04T01:42:07.809Z,2.55
2022-11-04T01:45:00.651Z,2.65
2022-11-04T01:48:03.099Z,2.27
2022-11-04T01:50:52.791Z,2.40
2022-11-04T01:53:43.441Z,2.30
2022-11-04T01:56:31.393Z,2.55
2022-11-04T01:59:27.522Z,2.60
2022-11-04T02:02:14.896Z,2.62
2022-11-04T02:05:02.177Z,2.47
2022-11-04T02:07:54.353Z,2.42
2022-11-04T02:10:44.312Z,2.65
2022-11-04T02:13:37.063Z,1.98
2022-11-04T02:16:33.621Z,1.70
2022-11-04T02:19:26.711Z,2.10
2022-11-04T02:22:39.194Z,2.08
2022-11-04T02:25:32.386Z,1.98
2022-11-04T02:28:52.669Z,2.17
2022-11-04T02:31:46.066Z,2.40
2022-11-04T02:35:06.553Z,2.33
2022-11-04T02:37:59.951Z,2.47
2022-11-04T02:40:59.376Z,2.80
2022-11-04T02:43:58.752Z,2.67
2022-11-04T02:46:51.983Z,2.35
2022-11-04T02:50:08.425Z,2.62
2022-11-04T02:53:08.135Z,2.50
2022-11-04T02:55:58.337Z,2.50
2022-11-04T02:58:54.529Z,2.42
2022-11-04T03:01:46.184Z,2.50
2022-11-04T03:04:36.587Z,2.17
2022-11-04T03:07:26.931Z,2.37
2022-11-04T03:10:26.921Z,1.95
2022-11-04T03:13:37.298Z,2.40
2022-11-04T03:16:39.262Z,1.55
2022-11-04T03:19:35.899Z,2.45
2022-11-04T03:22:26.280Z,1.92
2022-11-04T03:25:14.439Z,2.10
2022-11-04T03:28:28.484Z,2.33
2022-11-04T03:31:42.661Z,2.67
2022-11-04T03:34:31.616Z,2.17
2022-11-04T03:37:19.433Z,1.95
2022-11-04T03:40:07.919Z,1.62
2022-11-04T03:43:13.868Z,2.08
2022-11-04T03:46:01.614Z,2.08
2022-11-04T03:48:52.082Z,1.60
2022-11-04T03:51:39.316Z,1.77
2022-11-04T03:54:26.886Z,1.55
2022-11-04T03:57:23.375Z,1.50
2022-11-04T04:00:17.265Z,1.70
2022-11-04T04:03:34.938Z,1.40
2022-11-04T04:06:28.328Z,1.30
2022-11-04T04:09:27.840Z,1.05
2022-11-04T04:12:33.335Z,1.50
2022-11-04T04:15:23.881Z,1.40
2022-11-04T04:18:14.802Z,1.52
2022-11-04T04:21:05.740Z,1.25
2022-11-04T04:24:13.795Z,1.40
2022-11-04T04:27:21.034Z,1.25
2022-11-04T04:30:11.729Z,1.10
2022-11-04T04:33:02.083Z,1.47
2022-11-04T04:35:52.390Z,1.30
2022-11-04T04:39:00.105Z,1.50
2022-11-04T04:42:07.407Z,1.40
2022-11-04T04:47:47.916Z,1.62
2022-11-04T04:50:44.172Z,1.98
2022-11-04T04:53:31.552Z,1.50
2022-11-04T04:56:18.830Z,1.67
2022-11-04T04:59:06.541Z,1.90
2022-11-04T05:01:53.798Z,1.80
2022-11-04T05:04:41.302Z,1.85
2022-11-04T05:07:28.565Z,1.60
2022-11-04T05:10:17.121Z,2.02
2022-11-04T05:13:22.265Z,1.70
2022-11-04T05:16:11.716Z,2.02
2022-11-04T05:18:59.014Z,2.05
2022-11-04T05:21:46.216Z,2.12
2022-11-04T05:24:33.768Z,2.50
2022-11-04T05:27:21.552Z,2.35
2022-11-04T05:30:09.448Z,1.75
2022-11-04T05:32:59.926Z,1.62
2022-11-04T05:35:45.476Z,1.92
2022-11-04T05:38:33.185Z,1.77
2022-11-04T05:41:26.442Z,1.65
2022-11-04T05:44:15.873Z,1.87
2022-11-04T05:47:03.082Z,1.75
2022-11-04T05:49:50.238Z,1.80
2022-11-04T05:52:37.581Z,1.60
2022-11-04T05:55:25.134Z,1.92
2022-11-04T05:58:12.665Z,1.90
2022-11-04T06:01:36.410Z,1.95
2022-11-04T06:04:24.007Z,2.22
2022-11-04T06:07:11.981Z,2.12
2022-11-04T06:10:00.229Z,1.98
2022-11-04T06:12:47.732Z,2.25
2022-11-04T06:15:35.172Z,2.08
2022-11-04T06:18:25.239Z,2.58
2022-11-04T06:21:22.336Z,2.58
2022-11-04T06:26:56.350Z,2.30
2022-11-04T06:29:44.045Z,2.60
2022-11-04T06:32:31.656Z,2.90
2022-11-04T06:35:19.221Z,2.50
2022-11-04T06:38:06.676Z,2.72
2022-11-04T06:40:54.104Z,2.70
2022-11-04T06:43:41.847Z,2.30
2022-11-04T06:46:43.529Z,2.35
2022-11-04T06:49:30.542Z,2.58
2022-11-04T06:52:18.080Z,3.17
2022-11-04T06:55:05.868Z,2.87
2022-11-04T06:57:56.005Z,3.10
2022-11-04T07:00:43.451Z,3.17
2022-11-04T07:03:30.993Z,3.62
2022-11-04T07:06:19.554Z,3.47
2022-11-04T07:09:07.033Z,3.27
2022-11-04T07:11:54.237Z,9.93
2022-11-04T07:14:41.826Z,4.53
2022-11-04T07:17:29.902Z,3.62
2022-11-04T07:20:17.203Z,2.90
2022-11-04T07:23:04.491Z,3.17
2022-11-04T07:25:55.239Z,3.10
2022-11-04T07:28:42.768Z,3.25
2022-11-04T07:31:30.301Z,3.33
2022-11-04T07:34:17.750Z,3.52
2022-11-04T07:37:05.450Z,3.60
2022-11-04T07:39:52.976Z,3.35
2022-11-04T07:42:40.804Z,3.12
2022-11-04T07:45:28.379Z,3.40
2022-11-04T07:48:15.892Z,3.50
2022-11-04T07:51:03.459Z,2.95
2022-11-04T07:53:53.886Z,2.98
2022-11-04T07:56:41.106Z,2.70
2022-11-04T07:59:28.400Z,2.95
2022-11-04T08:02:18.572Z,2.95
2022-11-04T08:05:06.270Z,2.70
2022-11-04T08:07:53.723Z,2.62
2022-11-04T08:10:41.221Z,3.33
2022-11-04T08:13:30.521Z,3.10
2022-11-04T08:16:29.991Z,3.10
2022-11-04T08:19:15.171Z,3.08
2022-11-04T08:22:02.751Z,3.15
2022-11-04T08:24:51.507Z,3.30
2022-11-04T08:27:38.741Z,3.33
2022-11-04T08:30:26.312Z,3.33
2022-11-04T08:33:13.731Z,3.50
2022-11-04T08:36:09.564Z,3.47
2022-11-04T08:38:58.094Z,4.03
2022-11-04T08:41:47.290Z,3.83
2022-11-04T08:44:34.478Z,3.33
2022-11-04T08:47:24.684Z,3.27
2022-11-04T08:50:11.791Z,3.60
2022-11-04T08:52:59.286Z,3.67
2022-11-04T08:55:52.153Z,4.17
2022-11-04T08:58:39.879Z,3.95
2022-11-04T09:01:32.764Z,3.50
2022-11-04T09:04:19.696Z,3.70
2022-11-04T09:07:08.539Z,3.50
2022-11-04T09:09:55.852Z,3.65
2022-11-04T09:12:44.080Z,3.00
2022-11-04T09:15:31.384Z,2.70
2022-11-04T09:18:18.974Z,2.98
2022-11-04T09:21:08.241Z,2.80
2022-11-04T09:23:56.037Z,2.47
2022-11-04T09:26:44.766Z,3.02
2022-11-04T09:29:33.948Z,2.45
2022-11-04T09:32:22.946Z,2.77
2022-11-04T09:35:10.553Z,2.80
2022-11-04T09:38:01.226Z,2.65
2022-11-04T09:40:50.423Z,3.15
2022-11-04T09:43:52.023Z,2.17
2022-11-04T09:46:39.525Z,2.67
2022-11-04T09:49:30.215Z,2.30
2022-11-04T09:52:20.461Z,2.37
2022-11-04T09:55:14.106Z,3.50
2022-11-04T09:58:01.938Z,2.15
2022-11-04T10:01:01.496Z,1.80
2022-11-04T10:04:17.910Z,2.20
2022-11-04T10:07:23.571Z,2.02
2022-11-04T10:10:30.587Z,3.75
2022-11-04T10:13:39.000Z,3.50
2022-11-04T10:16:29.328Z,2.00
2022-11-04T10:19:36.570Z,2.08
2022-11-04T10:22:35.853Z,1.92
2022-11-04T10:25:26.050Z,1.77
2022-11-04T10:28:16.849Z,2.12
2022-11-04T10:31:05.577Z,2.22
2022-11-04T10:33:55.705Z,2.50
2022-11-04T10:36:44.946Z,2.80
2022-11-04T10:39:35.588Z,2.20
2022-11-04T10:42:23.184Z,1.82
2022-11-04T10:45:15.286Z,2.10
2022-11-04T10:48:13.994Z,1.90
2022-11-04T10:51:01.968Z,1.45
2022-11-04T10:54:02.368Z,1.67
2022-11-04T10:56:52.655Z,2.00
2022-11-04T10:59:49.310Z,2.02
2022-11-04T11:02:42.740Z,2.05
2022-11-04T11:05:29.782Z,1.57
2022-11-04T11:08:32.841Z,1.70
2022-11-04T11:11:41.884Z,2.20
2022-11-04T11:14:32.388Z,1.87
2022-11-04T11:17:25.560Z,2.60
2022-11-04T11:20:26.643Z,2.40
2022-11-04T11:23:39.897Z,2.15
2022-11-04T11:26:32.400Z,2.60
2022-11-04T11:29:28.724Z,1.98
2022-11-04T11:32:28.226Z,2.20
2022-11-04T11:35:19.942Z,2.10
2022-11-04T11:38:07.250Z,1.70
2022-11-04T11:41:23.454Z,1.85
2022-11-04T11:43:49.214Z,2.27
2022-11-04T11:46:37.924Z,2.22
2022-11-04T11:49:29.023Z,1.57
2022-11-04T11:52:25.071Z,1.70
2022-11-04T11:55:15.604Z,1.60
2022-11-04T12:01:31.566Z,1.57
2022-11-04T12:10:44.704Z,1.82
2022-11-04T12:13:23.782Z,1.80
2022-11-04T12:16:27.138Z,1.70
2022-11-04T12:19:26.297Z,1.50
2022-11-04T12:22:22.900Z,1.85
2022-11-04T12:25:25.377Z,1.60
2022-11-04T12:28:36.672Z,1.60
2022-11-04T12:31:32.694Z,1.40
2022-11-04T12:34:28.727Z,1.30
2022-11-04T12:37:34.466Z,1.40
2022-11-04T12:40:29.531Z,1.45
2022-11-04T12:43:45.806Z,1.30
2022-11-04T12:46:55.732Z,1.10
2022-11-04T12:50:03.486Z,1.17
2022-11-04T12:56:15.345Z,1.62
2022-11-04T12:59:14.649Z,1.25
2022-11-04T13:02:05.431Z,1.20
2022-11-04T13:05:19.527Z,3.08
2022-11-04T13:08:14.410Z,3.35
2022-11-04T13:11:04.367Z,1.95
2022-11-04T13:14:11.310Z,1.32
2022-11-04T13:17:01.726Z,1.10
2022-11-04T13:19:52.423Z,1.37
2022-11-04T13:22:42.003Z,1.10
2022-11-04T13:25:35.443Z,1.35
2022-11-04T13:28:24.132Z,1.57
2022-11-04T13:31:31.730Z,1.30
2022-11-04T13:34:51.078Z,1.00
2022-11-04T13:37:47.205Z,1.02
2022-11-04T13:40:57.154Z,0.98
2022-11-04T13:43:49.569Z,1.27
2022-11-04T13:46:36.771Z,1.75
2022-11-04T13:49:28.816Z,1.25
2022-11-04T13:52:16.941Z,1.60
2022-11-04T13:55:08.444Z,1.40
2022-11-04T13:57:58.549Z,1.00
2022-11-04T14:00:49.024Z,1.50
2022-11-04T14:03:42.729Z,1.60
2022-11-04T14:06:52.896Z,1.20
2022-11-04T14:09:46.134Z,1.12
2022-11-04T14:12:35.440Z,0.95
2022-11-04T14:15:26.110Z,0.90
2022-11-04T14:18:16.447Z,1.50
2022-11-04T14:21:09.505Z,1.10
2022-11-04T14:24:02.364Z,1.12
2022-11-04T14:26:51.509Z,0.98
2022-11-04T14:29:41.039Z,1.20
2022-11-04T14:32:31.979Z,1.27
2022-11-04T14:35:19.803Z,1.02
2022-11-04T14:38:10.366Z,1.00
2022-11-04T14:41:17.554Z,1.20
2022-11-04T14:44:25.792Z,1.30
2022-11-04T14:47:33.065Z,1.50
2022-11-04T14:50:23.749Z,1.30
2022-11-04T14:53:13.543Z,1.20
2022-11-04T14:56:12.613Z,1.60
2022-11-04T14:59:03.321Z,1.20
2022-11-04T15:01:52.257Z,1.00
2022-11-04T15:04:40.934Z,1.20
2022-11-04T15:07:34.548Z,1.42
2022-11-04T15:10:24.976Z,1.27
2022-11-04T15:13:12.444Z,1.98
2022-11-04T15:16:01.043Z,1.67
2022-11-04T15:18:49.073Z,1.57
2022-11-04T15:21:44.586Z,1.75
2022-11-04T15:24:32.288Z,1.60
2022-11-04T15:27:22.634Z,1.80
2022-11-04T15:30:22.104Z,1.72
2022-11-04T15:33:12.636Z,1.85
2022-11-04T15:36:00.626Z,1.60
2022-11-04T15:38:54.759Z,1.57
2022-11-04T15:42:01.117Z,1.72
2022-11-04T15:44:51.914Z,1.70
2022-11-04T15:47:38.990Z,1.50
2022-11-04T15:50:27.399Z,1.32
2022-11-04T15:53:16.955Z,1.37
2022-11-04T15:56:04.414Z,1.67
2022-11-04T15:58:53.513Z,1.70
2022-11-04T16:01:48.846Z,1.95
2022-11-04T16:04:36.378Z,1.62
2022-11-04T16:07:24.705Z,2.00
2022-11-04T16:10:33.070Z,1.45
2022-11-04T16:13:26.684Z,1.75
2022-11-04T16:16:16.828Z,1.90
2022-11-04T16:19:04.740Z,2.05
2022-11-04T16:22:04.388Z,2.33
2022-11-04T16:24:54.255Z,2.12
2022-11-04T16:27:41.914Z,2.17
2022-11-04T16:30:30.214Z,2.50
2022-11-04T16:33:19.248Z,2.35
2022-11-04T16:36:16.856Z,1.98
2022-11-04T16:39:07.178Z,1.82
2022-11-04T16:41:54.800Z,1.95
2022-11-04T16:44:43.507Z,2.02
2022-11-04T16:47:31.629Z,1.80
2022-11-04T16:50:22.750Z,2.02
2022-11-04T16:53:10.114Z,2.10
2022-11-04T16:55:59.021Z,2.15
2022-11-04T16:58:46.269Z,2.22
2022-11-04T17:01:33.763Z,1.95
2022-11-04T17:04:23.685Z,1.80
2022-11-04T17:07:11.089Z,1.90
2022-11-04T17:09:58.405Z,1.98
2022-11-04T17:12:45.793Z,2.25
2022-11-04T17:15:33.386Z,2.40
2022-11-04T17:18:21.808Z,2.80
2022-11-04T17:21:11.540Z,2.30
2022-11-04T17:23:58.985Z,2.30
2022-11-04T17:26:46.388Z,2.58
2022-11-04T17:29:33.696Z,2.50
2022-11-04T17:32:21.460Z,2.40
2022-11-04T17:35:09.422Z,2.87
2022-11-04T17:37:56.573Z,2.77
2022-11-04T17:41:01.965Z,2.85
2022-11-04T17:44:01.587Z,3.17
2022-11-04T17:46:49.204Z,3.47
2022-11-04T17:49:38.985Z,3.72
2022-11-04T17:52:26.730Z,6.05
2022-11-04T17:55:18.834Z,5.12
2022-11-04T17:58:04.636Z,5.53
2022-11-04T18:00:51.962Z,4.83
2022-11-04T18:03:39.121Z,4.70
2022-11-04T18:06:27.649Z,3.92
2022-11-04T18:09:15.608Z,4.35
2022-11-04T18:12:21.255Z,4.37
2022-11-04T18:15:14.043Z,4.05
2022-11-04T18:18:01.640Z,3.85
2022-11-04T18:20:49.855Z,4.15
2022-11-04T18:23:37.151Z,4.42
2022-11-04T18:26:27.244Z,5.25
2022-11-04T18:29:14.516Z,4.55
2022-11-04T18:32:01.753Z,4.17
2022-11-04T18:34:52.798Z,4.40
2022-11-04T18:37:46.809Z,4.75
2022-11-04T18:40:29.014Z,4.87
2022-11-04T18:43:16.858Z,5.62
2022-11-04T18:46:09.437Z,4.05
2022-11-04T18:48:56.542Z,4.30
2022-11-04T18:51:45.040Z,4.97
2022-11-04T18:54:32.508Z,5.37
2022-11-04T18:57:21.387Z,4.75
2022-11-04T19:00:15.760Z,4.65
2022-11-04T19:03:00.119Z,4.67
2022-11-04T19:05:47.544Z,4.55
2022-11-04T19:08:35.390Z,4.78
2022-11-04T19:11:28.350Z,4.50
2022-11-04T19:14:18.062Z,4.97
2022-11-04T19:17:05.289Z,4.95
2022-11-04T19:19:53.402Z,4.65
2022-11-04T19:22:41.879Z,5.35
2022-11-04T19:25:29.778Z,5.42
2022-11-04T19:28:37.206Z,5.20
2022-11-04T19:31:06.777Z,6.40
2022-11-04T19:33:55.433Z,6.90
2022-11-04T19:36:42.826Z,5.65
2022-11-04T19:39:30.264Z,7.55
2022-11-04T19:42:35.909Z,6.15
2022-11-04T19:45:26.192Z,5.50
2022-11-04T19:48:14.629Z,6.45
2022-11-04T19:51:01.996Z,5.45
2022-11-04T19:53:49.378Z,6.00
2022-11-04T19:56:37.952Z,6.65
2022-11-04T19:59:25.547Z,8.05
2022-11-04T20:02:16.455Z,6.60
2022-11-04T20:05:03.773Z,7.87
2022-11-04T20:07:55.003Z,11.12
2022-11-04T20:10:43.903Z,9.13
2022-11-04T20:13:51.478Z,8.73
2022-11-04T20:22:13.245Z,10.13
2022-11-04T20:25:00.518Z,7.58
2022-11-04T20:27:47.584Z,7.65
2022-11-04T20:30:39.613Z,7.42
2022-11-04T20:33:26.966Z,7.37
2022-11-04T20:36:16.635Z,6.53
2022-11-04T20:39:06.350Z,7.30
2022-11-04T20:41:53.722Z,6.92
2022-11-04T20:44:41.170Z,6.78
2022-11-04T20:47:28.456Z,6.72
2022-11-04T20:50:15.828Z,7.58
2022-11-04T20:53:03.093Z,6.95
2022-11-04T20:55:52.198Z,7.53
2022-11-04T20:58:42.051Z,7.45
2022-11-04T21:01:32.828Z,7.22
2022-11-04T21:04:21.883Z,7.28
2022-11-04T21:07:09.513Z,7.83
2022-11-04T21:09:56.660Z,8.05
2022-11-04T21:12:44.180Z,8.25
2022-11-04T21:15:40.603Z,6.83
2022-11-04T21:18:27.874Z,7.53
2022-11-04T21:21:16.936Z,8.18
2022-11-04T21:24:06.698Z,7.35
2022-11-04T21:26:53.968Z,8.48
2022-11-04T21:29:41.428Z,9.35
2022-11-04T21:32:31.383Z,9.15
2022-11-04T21:35:18.800Z,9.48
2022-11-04T21:38:08.206Z,8.48
2022-11-04T21:41:08.086Z,7.50
2022-11-04T21:44:03.241Z,8.33
2022-11-04T21:46:52.412Z,8.20
2022-11-04T21:49:39.985Z,8.90
2022-11-04T21:52:27.703Z,8.70
2022-11-04T21:55:14.855Z,8.58
2022-11-04T21:58:02.358Z,7.70
2022-11-04T22:00:57.976Z,8.08
2022-11-04T22:03:47.517Z,7.47
2022-11-04T22:06:35.813Z,7.65
2022-11-04T22:09:23.091Z,7.67
2022-11-04T22:12:10.302Z,7.58
2022-11-04T22:14:57.840Z,7.12
2022-11-04T22:17:45.213Z,5.90
2022-11-04T22:20:33.002Z,6.22
2022-11-04T22:23:20.646Z,5.78
2022-11-04T22:26:10.670Z,6.17
2022-11-04T22:28:58.156Z,6.50
2022-11-04T22:31:45.274Z,6.20
2022-11-04T22:34:32.662Z,5.92
2022-11-04T22:37:20.274Z,5.75
2022-11-04T22:40:08.411Z,5.83
2022-11-04T22:42:55.626Z,7.45
2022-11-04T22:45:42.881Z,6.60
2022-11-04T22:48:30.170Z,4.58
2022-11-04T22:51:18.062Z,3.77
2022-11-04T22:54:08.555Z,3.30
2022-11-04T22:56:54.386Z,3.35
2022-11-04T22:59:41.630Z,3.52
2022-11-04T23:02:36.655Z,3.90
2022-11-04T23:05:20.634Z,4.05
2022-11-04T23:08:07.850Z,3.87
2022-11-04T23:11:19.079Z,4.30
2022-11-04T23:14:24.542Z,3.80
2022-11-04T23:17:36.285Z,3.92
2022-11-04T23:20:25.580Z,3.98
2022-11-04T23:23:31.289Z,4.00
2022-11-04T23:26:21.378Z,3.50
2022-11-04T23:29:26.190Z,3.50
2022-11-04T23:32:13.953Z,4.17
2022-11-04T23:35:19.322Z,3.52
2022-11-04T23:38:06.877Z,3.50
2022-11-04T23:41:15.361Z,3.55
2022-11-04T23:44:02.917Z,3.77
2022-11-04T23:47:08.134Z,3.22
2022-11-04T23:50:13.745Z,3.40
2022-11-04T23:53:20.671Z,3.40
2022-11-04T23:56:29.336Z,3.25
2022-11-04T23:59:36.155Z,2.90
